sensor_id;sensor_type;location;lat;lon;timestamp;P1;durP1;ratioP1;P2;durP2;ratioP2
18473;SDS011;30265;52.408;13.500;2023-08-06T00:07:35;14.50;;;9.35;;
18473;SDS011;30265;52.408;13.500;2023-08-06T00:17:57;14.35;;;8.90;;
18473;SDS011;30265;52.408;13.500;2023-08-06T00:28:21;13.65;;;9.10;;
18473;SDS011;30265;52.408;13.500;2023-08-06T00:38:43;13.55;;;8.75;;
18473;SDS011;30265;52.408;13.500;2023-08-06T01:01:12;14.55;;;8.68;;
18473;SDS011;30265;52.408;13.500;2023-08-06T01:11:42;13.90;;;8.90;;
18473;SDS011;30265;52.408;13.500;2023-08-06T01:22:59;14.38;;;8.75;;
18473;SDS011;30265;52.408;13.500;2023-08-06T01:33:21;16.08;;;9.88;;
18473;SDS011;30265;52.408;13.500;2023-08-06T01:43:45;18.63;;;11.00;;
18473;SDS011;30265;52.408;13.500;2023-08-06T01:54:07;17.88;;;9.95;;
18473;SDS011;30265;52.408;13.500;2023-08-06T02:04:31;16.42;;;8.60;;
18473;SDS011;30265;52.408;13.500;2023-08-06T02:14:54;14.90;;;8.80;;
18473;SDS011;30265;52.408;13.500;2023-08-06T02:25:17;13.63;;;7.72;;
18473;SDS011;30265;52.408;13.500;2023-08-06T02:35:39;13.77;;;7.72;;
18473;SDS011;30265;52.408;13.500;2023-08-06T02:46:03;14.15;;;8.05;;
18473;SDS011;30265;52.408;13.500;2023-08-06T02:56:25;13.57;;;7.82;;
18473;SDS011;30265;52.408;13.500;2023-08-06T03:07:06;11.88;;;7.47;;
18473;SDS011;30265;52.408;13.500;2023-08-06T03:17:38;14.27;;;8.45;;
18473;SDS011;30265;52.408;13.500;2023-08-06T03:28:03;15.13;;;8.70;;
18473;SDS011;30265;52.408;13.500;2023-08-06T03:48:53;13.43;;;8.20;;
18473;SDS011;30265;52.408;13.500;2023-08-06T03:59:15;14.38;;;8.63;;
18473;SDS011;30265;52.408;13.500;2023-08-06T04:09:52;14.25;;;7.93;;
18473;SDS011;30265;52.408;13.500;2023-08-06T04:20:14;15.47;;;8.70;;
18473;SDS011;30265;52.408;13.500;2023-08-06T04:30:38;18.05;;;8.55;;
18473;SDS011;30265;52.408;13.500;2023-08-06T04:41:02;18.45;;;8.02;;
18473;SDS011;30265;52.408;13.500;2023-08-06T04:51:26;19.73;;;9.35;;
18473;SDS011;30265;52.408;13.500;2023-08-06T05:01:47;17.67;;;10.15;;
18473;SDS011;30265;52.408;13.500;2023-08-06T05:12:11;19.30;;;10.10;;
18473;SDS011;30265;52.408;13.500;2023-08-06T05:22:32;18.65;;;10.50;;
18473;SDS011;30265;52.408;13.500;2023-08-06T05:32:56;18.13;;;9.52;;
18473;SDS011;30265;52.408;13.500;2023-08-06T05:43:17;20.30;;;10.85;;
18473;SDS011;30265;52.408;13.500;2023-08-06T05:53:40;13.88;;;8.40;;
18473;SDS011;30265;52.408;13.500;2023-08-06T06:04:02;14.90;;;8.45;;
18473;SDS011;30265;52.408;13.500;2023-08-06T06:14:26;16.88;;;9.10;;
18473;SDS011;30265;52.408;13.500;2023-08-06T06:24:47;15.65;;;9.95;;
18473;SDS011;30265;52.408;13.500;2023-08-06T06:35:10;12.00;;;7.55;;
18473;SDS011;30265;52.408;13.500;2023-08-06T06:45:32;13.95;;;7.60;;
18473;SDS011;30265;52.408;13.500;2023-08-06T06:55:54;13.52;;;8.68;;
18473;SDS011;30265;52.408;13.500;2023-08-06T07:06:16;13.98;;;8.00;;
18473;SDS011;30265;52.408;13.500;2023-08-06T07:16:42;17.05;;;9.27;;
18473;SDS011;30265;52.408;13.500;2023-08-06T07:27:05;13.93;;;8.88;;
18473;SDS011;30265;52.408;13.500;2023-08-06T07:37:28;16.98;;;9.23;;
18473;SDS011;30265;52.408;13.500;2023-08-06T07:47:50;11.60;;;7.38;;
18473;SDS011;30265;52.408;13.500;2023-08-06T07:58:15;11.70;;;7.18;;
18473;SDS011;30265;52.408;13.500;2023-08-06T08:08:37;13.18;;;7.65;;
18473;SDS011;30265;52.408;13.500;2023-08-06T08:19:00;16.42;;;8.32;;
18473;SDS011;30265;52.408;13.500;2023-08-06T08:29:24;12.98;;;8.55;;
18473;SDS011;30265;52.408;13.500;2023-08-06T08:39:48;12.77;;;8.48;;
18473;SDS011;30265;52.408;13.500;2023-08-06T08:50:10;12.25;;;9.15;;
18473;SDS011;30265;52.408;13.500;2023-08-06T09:00:35;12.93;;;8.50;;
18473;SDS011;30265;52.408;13.500;2023-08-06T09:10:58;14.82;;;9.05;;
18473;SDS011;30265;52.408;13.500;2023-08-06T09:21:24;16.23;;;10.68;;
18473;SDS011;30265;52.408;13.500;2023-08-06T09:31:50;16.77;;;10.63;;
18473;SDS011;30265;52.408;13.500;2023-08-06T09:42:15;21.20;;;11.45;;
18473;SDS011;30265;52.408;13.500;2023-08-06T09:52:37;17.88;;;10.45;;
18473;SDS011;30265;52.408;13.500;2023-08-06T10:03:00;16.95;;;11.25;;
18473;SDS011;30265;52.408;13.500;2023-08-06T10:13:23;16.95;;;10.55;;
18473;SDS011;30265;52.408;13.500;2023-08-06T10:23:53;17.75;;;11.52;;
18473;SDS011;30265;52.408;13.500;2023-08-06T10:34:16;18.63;;;10.77;;
18473;SDS011;30265;52.408;13.500;2023-08-06T10:44:48;17.63;;;10.93;;
18473;SDS011;30265;52.408;13.500;2023-08-06T10:55:32;16.48;;;11.32;;
18473;SDS011;30265;52.408;13.500;2023-08-06T11:05:57;14.98;;;7.97;;
18473;SDS011;30265;52.408;13.500;2023-08-06T11:16:22;16.55;;;9.63;;
18473;SDS011;30265;52.408;13.500;2023-08-06T11:26:49;16.05;;;9.50;;
18473;SDS011;30265;52.408;13.500;2023-08-06T11:37:44;14.38;;;8.40;;
18473;SDS011;30265;52.408;13.500;2023-08-06T11:48:14;15.93;;;8.57;;
18473;SDS011;30265;52.408;13.500;2023-08-06T11:58:46;12.95;;;8.55;;
18473;SDS011;30265;52.408;13.500;2023-08-06T12:09:23;17.70;;;9.75;;
18473;SDS011;30265;52.408;13.500;2023-08-06T12:19:45;13.15;;;9.35;;
18473;SDS011;30265;52.408;13.500;2023-08-06T12:30:17;14.50;;;7.35;;
18473;SDS011;30265;52.408;13.500;2023-08-06T12:40:43;16.70;;;10.30;;
18473;SDS011;30265;52.408;13.500;2023-08-06T12:51:09;16.77;;;10.20;;
18473;SDS011;30265;52.408;13.500;2023-08-06T13:01:31;13.52;;;7.25;;
18473;SDS011;30265;52.408;13.500;2023-08-06T13:11:54;10.93;;;4.95;;
18473;SDS011;30265;52.408;13.500;2023-08-06T13:22:17;11.87;;;6.67;;
18473;SDS011;30265;52.408;13.500;2023-08-06T13:32:43;11.32;;;7.38;;
18473;SDS011;30265;52.408;13.500;2023-08-06T13:43:06;14.75;;;7.65;;
18473;SDS011;30265;52.408;13.500;2023-08-06T13:53:41;11.10;;;6.13;;
18473;SDS011;30265;52.408;13.500;2023-08-06T14:04:05;11.17;;;6.60;;
18473;SDS011;30265;52.408;13.500;2023-08-06T14:14:27;10.98;;;6.85;;
18473;SDS011;30265;52.408;13.500;2023-08-06T14:24:49;14.07;;;7.18;;
18473;SDS011;30265;52.408;13.500;2023-08-06T14:35:12;12.68;;;7.40;;
18473;SDS011;30265;52.408;13.500;2023-08-06T14:45:39;12.77;;;7.82;;
18473;SDS011;30265;52.408;13.500;2023-08-06T14:56:05;16.40;;;7.60;;
18473;SDS011;30265;52.408;13.500;2023-08-06T15:06:29;12.23;;;7.50;;
18473;SDS011;30265;52.408;13.500;2023-08-06T15:16:53;12.38;;;7.10;;
18473;SDS011;30265;52.408;13.500;2023-08-06T15:27:17;11.43;;;6.95;;
18473;SDS011;30265;52.408;13.500;2023-08-06T15:37:40;14.30;;;7.85;;
18473;SDS011;30265;52.408;13.500;2023-08-06T15:48:01;13.15;;;7.70;;
18473;SDS011;30265;52.408;13.500;2023-08-06T15:58:25;13.27;;;6.82;;
18473;SDS011;30265;52.408;13.500;2023-08-06T16:08:47;15.60;;;7.63;;
18473;SDS011;30265;52.408;13.500;2023-08-06T16:19:10;9.25;;;5.47;;
18473;SDS011;30265;52.408;13.500;2023-08-06T16:29:36;7.28;;;4.65;;
18473;SDS011;30265;52.408;13.500;2023-08-06T16:40:01;7.25;;;4.68;;
18473;SDS011;30265;52.408;13.500;2023-08-06T16:50:25;6.75;;;4.60;;
18473;SDS011;30265;52.408;13.500;2023-08-06T17:00:50;9.95;;;4.97;;
18473;SDS011;30265;52.408;13.500;2023-08-06T17:11:12;6.95;;;4.32;;
18473;SDS011;30265;52.408;13.500;2023-08-06T17:21:38;8.30;;;4.75;;
18473;SDS011;30265;52.408;13.500;2023-08-06T17:32:02;12.07;;;5.40;;
18473;SDS011;30265;52.408;13.500;2023-08-06T17:42:26;11.35;;;5.00;;
18473;SDS011;30265;52.408;13.500;2023-08-06T17:52:48;7.60;;;5.18;;
18473;SDS011;30265;52.408;13.500;2023-08-06T18:03:11;13.30;;;5.47;;
18473;SDS011;30265;52.408;13.500;2023-08-06T18:13:34;9.57;;;5.05;;
18473;SDS011;30265;52.408;13.500;2023-08-06T18:23:58;7.72;;;4.38;;
18473;SDS011;30265;52.408;13.500;2023-08-06T18:34:20;8.65;;;4.88;;
18473;SDS011;30265;52.408;13.500;2023-08-06T18:44:44;7.55;;;4.60;;
18473;SDS011;30265;52.408;13.500;2023-08-06T18:55:07;10.55;;;5.25;;
18473;SDS011;30265;52.408;13.500;2023-08-06T19:05:31;8.85;;;5.05;;
18473;SDS011;30265;52.408;13.500;2023-08-06T19:15:53;8.48;;;4.72;;
18473;SDS011;30265;52.408;13.500;2023-08-06T19:26:19;10.82;;;5.32;;
18473;SDS011;30265;52.408;13.500;2023-08-06T19:36:40;12.27;;;7.03;;
18473;SDS011;30265;52.408;13.500;2023-08-06T19:47:04;12.13;;;7.35;;
18473;SDS011;30265;52.408;13.500;2023-08-06T19:57:25;13.40;;;7.40;;
18473;SDS011;30265;52.408;13.500;2023-08-06T20:07:48;13.48;;;7.60;;
18473;SDS011;30265;52.408;13.500;2023-08-06T20:18:10;15.80;;;8.85;;
18473;SDS011;30265;52.408;13.500;2023-08-06T20:28:33;19.83;;;8.85;;
18473;SDS011;30265;52.408;13.500;2023-08-06T20:38:55;20.48;;;9.40;;
18473;SDS011;30265;52.408;13.500;2023-08-06T20:49:20;18.85;;;9.40;;
18473;SDS011;30265;52.408;13.500;2023-08-06T20:59:43;12.00;;;6.47;;
18473;SDS011;30265;52.408;13.500;2023-08-06T21:10:09;9.93;;;5.63;;
18473;SDS011;30265;52.408;13.500;2023-08-06T21:20:31;8.27;;;4.22;;
18473;SDS011;30265;52.408;13.500;2023-08-06T21:30:54;7.25;;;4.10;;
18473;SDS011;30265;52.408;13.500;2023-08-06T21:41:16;7.97;;;4.35;;
18473;SDS011;30265;52.408;13.500;2023-08-06T21:51:39;8.43;;;3.63;;
18473;SDS011;30265;52.408;13.500;2023-08-06T22:02:02;7.15;;;2.92;;
18473;SDS011;30265;52.408;13.500;2023-08-06T22:12:25;7.07;;;2.95;;
18473;SDS011;30265;52.408;13.500;2023-08-06T22:22:47;8.98;;;3.50;;
18473;SDS011;30265;52.408;13.500;2023-08-06T22:33:10;5.65;;;3.00;;
18473;SDS011;30265;52.408;13.500;2023-08-06T22:43:32;6.07;;;3.30;;
18473;SDS011;30265;52.408;13.500;2023-08-06T22:53:56;5.57;;;2.70;;
18473;SDS011;30265;52.408;13.500;2023-08-06T23:04:18;5.90;;;3.42;;
18473;SDS011;30265;52.408;13.500;2023-08-06T23:14:41;7.32;;;3.33;;
18473;SDS011;30265;52.408;13.500;2023-08-06T23:25:03;9.32;;;4.05;;
18473;SDS011;30265;52.408;13.500;2023-08-06T23:35:26;7.70;;;4.30;;
18473;SDS011;30265;52.408;13.500;2023-08-06T23:45:48;7.90;;;4.13;;
18473;SDS011;30265;52.408;13.500;2023-08-06T23:56:11;5.90;;;3.58;;
